createdAt,value
2019-06-20T00:01:00.254Z,0.00
2019-06-20T00:02:00.694Z,0.00
2019-06-20T00:03:01.182Z,0.00
2019-06-20T00:04:01.599Z,0.00
2019-06-20T00:05:23.193Z,0.00
2019-06-20T00:06:02.474Z,0.00
2019-06-20T00:07:02.941Z,0.00
2019-06-20T00:08:03.375Z,0.00
2019-06-20T00:09:03.805Z,0.00
2019-06-20T00:10:04.258Z,0.00
2019-06-20T00:11:25.866Z,0.00
2019-06-20T00:12:05.147Z,0.00
2019-06-20T00:13:05.603Z,0.00
2019-06-20T00:14:06.074Z,0.00
2019-06-20T00:15:06.486Z,0.00
2019-06-20T00:16:06.940Z,0.00
2019-06-20T00:17:28.537Z,0.00
2019-06-20T00:18:07.816Z,0.00
2019-06-20T00:19:08.261Z,0.00
2019-06-20T00:20:08.779Z,0.00
2019-06-20T00:21:09.349Z,0.00
2019-06-20T00:22:09.677Z,0.00
2019-06-20T00:23:31.223Z,0.00
2019-06-20T00:24:10.501Z,0.00
2019-06-20T00:25:10.944Z,0.00
2019-06-20T00:26:11.436Z,0.00
2019-06-20T00:27:11.827Z,0.00
2019-06-20T00:28:12.301Z,0.00
2019-06-20T00:29:33.906Z,0.00
2019-06-20T00:30:13.164Z,0.00
2019-06-20T00:31:13.620Z,0.00
2019-06-20T00:32:14.062Z,0.00
2019-06-20T00:33:14.498Z,0.00
2019-06-20T00:34:14.959Z,0.00
2019-06-20T00:35:36.558Z,0.00
2019-06-20T00:36:15.842Z,0.00
2019-06-20T00:37:16.299Z,0.00
2019-06-20T00:38:16.728Z,0.00
2019-06-20T00:39:17.186Z,0.00
2019-06-20T00:40:17.628Z,0.00
2019-06-20T00:41:39.391Z,0.00
2019-06-20T00:42:18.508Z,0.00
2019-06-20T00:43:18.965Z,0.00
2019-06-20T00:44:19.400Z,0.00
2019-06-20T00:45:19.854Z,0.00
2019-06-20T00:46:20.291Z,0.00
2019-06-20T00:47:41.937Z,0.00
2019-06-20T00:48:21.181Z,0.00
2019-06-20T00:49:21.636Z,0.00
2019-06-20T00:50:22.074Z,0.00
2019-06-20T00:51:22.521Z,0.00
2019-06-20T00:52:22.964Z,0.00
2019-06-20T00:53:44.584Z,0.00
2019-06-20T00:54:23.886Z,0.00
2019-06-20T00:55:24.297Z,0.00
2019-06-20T00:56:24.746Z,0.00
2019-06-20T00:57:25.185Z,0.00
2019-06-20T00:58:25.679Z,0.00
2019-06-20T00:59:47.235Z,0.00
2019-06-20T01:00:26.523Z,0.00
2019-06-20T01:01:26.970Z,0.00
2019-06-20T01:02:27.425Z,0.00
2019-06-20T01:03:27.893Z,0.00
2019-06-20T01:04:28.302Z,0.00
2019-06-20T01:05:49.928Z,0.00
2019-06-20T01:06:29.212Z,0.00
2019-06-20T01:07:29.637Z,0.00
2019-06-20T01:08:30.138Z,0.00
2019-06-20T01:09:30.528Z,0.00
2019-06-20T01:10:30.976Z,0.00
2019-06-20T01:11:52.579Z,0.00
2019-06-20T01:12:31.868Z,0.00
2019-06-20T01:13:34.093Z,0.00
2019-06-20T01:14:32.758Z,0.00
2019-06-20T01:15:33.206Z,0.00
2019-06-20T01:16:33.722Z,0.00
2019-06-20T01:17:55.254Z,0.00
2019-06-20T01:18:34.718Z,0.00
2019-06-20T01:19:34.994Z,0.00
2019-06-20T01:20:35.617Z,0.00
2019-06-20T01:21:35.952Z,0.00
2019-06-20T01:22:36.388Z,0.00
2019-06-20T01:23:57.923Z,0.00
2019-06-20T01:24:37.194Z,0.00
2019-06-20T01:25:37.673Z,0.00
2019-06-20T01:26:38.092Z,0.00
2019-06-20T01:27:38.544Z,0.00
2019-06-20T01:28:39.058Z,0.00
2019-06-20T01:30:00.591Z,0.00
2019-06-20T01:30:39.894Z,0.00
2019-06-20T01:31:40.315Z,0.00
2019-06-20T01:32:40.748Z,0.00
2019-06-20T01:33:41.194Z,0.00
2019-06-20T01:34:41.650Z,0.00
2019-06-20T01:36:03.269Z,0.00
2019-06-20T01:36:42.521Z,0.00
2019-06-20T01:37:43.004Z,0.00
2019-06-20T01:38:43.405Z,0.00
2019-06-20T01:39:43.895Z,0.00
2019-06-20T01:40:44.412Z,0.00
2019-06-20T01:42:06.025Z,0.00
2019-06-20T01:42:45.214Z,0.00
2019-06-20T01:43:50.556Z,0.00
2019-06-20T01:44:46.075Z,0.00
2019-06-20T01:45:46.523Z,0.00
2019-06-20T01:46:46.980Z,0.00
2019-06-20T01:48:08.657Z,0.00
2019-06-20T01:48:47.932Z,0.00
2019-06-20T01:49:48.334Z,0.00
2019-06-20T01:50:48.750Z,0.00
2019-06-20T01:51:49.191Z,0.00
2019-06-20T01:52:49.625Z,0.00
2019-06-20T01:54:11.244Z,0.00
2019-06-20T01:54:50.579Z,0.00
2019-06-20T01:55:50.953Z,0.00
2019-06-20T01:56:51.411Z,0.00
2019-06-20T01:57:51.841Z,0.00
2019-06-20T01:58:52.287Z,4.00
2019-06-20T02:00:13.962Z,4.00
2019-06-20T02:00:53.179Z,4.00
2019-06-20T02:01:53.661Z,4.00
2019-06-20T02:02:54.061Z,4.00
2019-06-20T02:03:54.499Z,0.00
2019-06-20T02:04:54.945Z,4.00
2019-06-20T02:06:16.544Z,4.00
2019-06-20T02:06:55.828Z,4.00
2019-06-20T02:07:56.287Z,4.00
2019-06-20T02:08:56.711Z,4.00
2019-06-20T02:09:57.173Z,4.00
2019-06-20T02:10:57.598Z,8.00
2019-06-20T02:12:19.207Z,4.00
2019-06-20T02:12:58.482Z,8.00
2019-06-20T02:14:07.180Z,12.00
2019-06-20T02:14:59.371Z,8.00
2019-06-20T02:15:59.832Z,12.00
2019-06-20T02:17:00.272Z,12.00
2019-06-20T02:18:21.863Z,12.00
2019-06-20T02:19:01.158Z,16.00
2019-06-20T02:20:01.586Z,16.00
2019-06-20T02:21:02.049Z,16.00
2019-06-20T02:22:02.524Z,16.00
2019-06-20T02:23:02.914Z,20.00
2019-06-20T02:24:24.550Z,20.00
2019-06-20T02:25:03.800Z,24.00
2019-06-20T02:26:04.257Z,24.00
2019-06-20T02:27:04.693Z,28.00
2019-06-20T02:28:05.141Z,32.00
2019-06-20T02:29:05.566Z,40.00
2019-06-20T02:30:27.183Z,40.00
2019-06-20T02:31:06.458Z,48.00
2019-06-20T02:32:06.901Z,52.00
2019-06-20T02:33:07.337Z,60.00
2019-06-20T02:34:07.793Z,68.00
2019-06-20T02:35:08.236Z,80.00
2019-06-20T02:36:29.853Z,88.00
2019-06-20T02:37:09.119Z,92.00
2019-06-20T02:38:09.563Z,104.00
2019-06-20T02:39:10.013Z,112.00
2019-06-20T02:40:10.440Z,120.00
2019-06-20T02:41:10.903Z,132.00
2019-06-20T02:42:32.489Z,144.00
2019-06-20T02:43:11.770Z,152.00
2019-06-20T02:44:29.006Z,160.00
2019-06-20T02:45:12.650Z,172.00
2019-06-20T02:46:13.104Z,184.00
2019-06-20T02:47:13.543Z,192.00
2019-06-20T02:48:35.147Z,204.00
2019-06-20T02:49:14.443Z,220.00
2019-06-20T02:50:14.874Z,228.00
2019-06-20T02:51:15.308Z,244.00
2019-06-20T02:52:15.758Z,256.00
2019-06-20T02:53:16.184Z,264.00
2019-06-20T02:54:37.796Z,280.00
2019-06-20T02:55:17.134Z,292.00
2019-06-20T02:56:17.519Z,312.00
2019-06-20T02:57:17.967Z,324.00
2019-06-20T02:58:18.412Z,344.00
2019-06-20T02:59:18.841Z,364.00
2019-06-20T03:00:40.447Z,380.00
2019-06-20T03:01:19.737Z,400.00
2019-06-20T03:02:20.185Z,420.00
2019-06-20T03:03:20.612Z,440.00
2019-06-20T03:04:21.055Z,460.00
2019-06-20T03:05:21.514Z,480.00
2019-06-20T03:06:43.113Z,508.00
2019-06-20T03:07:22.380Z,532.00
2019-06-20T03:08:22.825Z,556.00
2019-06-20T03:09:23.267Z,584.00
2019-06-20T03:10:23.708Z,604.00
2019-06-20T03:11:24.158Z,624.00
2019-06-20T03:12:45.753Z,644.00
2019-06-20T03:13:25.026Z,664.00
2019-06-20T03:14:25.472Z,688.00
2019-06-20T03:15:25.922Z,720.00
2019-06-20T03:16:26.353Z,756.00
2019-06-20T03:17:26.800Z,792.00
2019-06-20T03:18:48.422Z,832.00
2019-06-20T03:19:27.687Z,868.00
2019-06-20T03:20:28.125Z,924.00
2019-06-20T03:21:28.567Z,956.00
2019-06-20T03:22:29.015Z,972.00
2019-06-20T03:23:29.443Z,964.00
2019-06-20T03:24:51.078Z,936.00
2019-06-20T03:25:30.356Z,908.00
2019-06-20T03:26:30.772Z,896.00
2019-06-20T03:27:31.221Z,908.00
2019-06-20T03:28:31.662Z,920.00
2019-06-20T03:29:32.105Z,948.00
2019-06-20T03:30:53.756Z,972.00
2019-06-20T03:31:33.000Z,992.00
2019-06-20T03:32:33.441Z,1000.00
2019-06-20T03:33:33.868Z,976.00
2019-06-20T03:34:34.326Z,964.00
2019-06-20T03:35:34.751Z,964.00
2019-06-20T03:36:56.357Z,964.00
2019-06-20T03:37:35.638Z,968.00
2019-06-20T03:38:36.073Z,988.00
2019-06-20T03:39:36.638Z,1008.00
2019-06-20T03:40:36.956Z,1024.00
2019-06-20T03:41:37.413Z,1052.00
2019-06-20T03:42:59.002Z,1084.00
2019-06-20T03:43:38.284Z,1124.00
2019-06-20T03:44:38.774Z,1164.00
2019-06-20T03:45:39.189Z,1204.00
2019-06-20T03:46:39.620Z,1256.00
2019-06-20T03:47:40.060Z,1304.00
2019-06-20T03:49:01.660Z,1380.00
2019-06-20T03:49:40.968Z,1476.00
2019-06-20T03:50:41.379Z,1588.00
2019-06-20T03:51:41.862Z,1696.00
2019-06-20T03:52:42.284Z,1776.00
2019-06-20T03:53:42.770Z,1832.00
2019-06-20T03:55:04.306Z,1876.00
2019-06-20T03:55:43.588Z,1916.00
2019-06-20T03:56:44.027Z,1960.00
2019-06-20T03:57:44.494Z,2020.00
2019-06-20T03:58:44.920Z,2104.00
2019-06-20T03:59:45.413Z,2156.00
2019-06-20T04:01:06.973Z,2208.00
2019-06-20T04:01:49.097Z,2260.00
2019-06-20T04:02:46.734Z,2320.00
2019-06-20T04:03:47.129Z,2376.00
2019-06-20T04:04:47.564Z,2452.00
2019-06-20T04:05:48.013Z,2504.00
2019-06-20T04:07:09.618Z,2560.00
2019-06-20T04:07:48.891Z,2572.00
2019-06-20T04:08:49.335Z,2572.00
2019-06-20T04:09:49.777Z,2556.00
2019-06-20T04:10:50.219Z,2540.00
2019-06-20T04:11:50.659Z,2540.00
2019-06-20T04:13:12.271Z,2568.00
2019-06-20T04:13:51.554Z,2620.00
2019-06-20T04:14:51.980Z,2696.00
2019-06-20T04:15:52.433Z,2784.00
2019-06-20T04:16:52.876Z,2860.00
2019-06-20T04:17:53.316Z,2920.00
2019-06-20T04:19:14.946Z,2956.00
2019-06-20T04:19:54.204Z,2980.00
2019-06-20T04:20:54.636Z,3000.00
2019-06-20T04:21:55.087Z,3016.00
2019-06-20T04:22:55.524Z,3040.00
2019-06-20T04:23:55.990Z,3056.00
2019-06-20T04:25:17.582Z,3068.00
2019-06-20T04:25:56.850Z,3068.00
2019-06-20T04:26:57.291Z,3056.00
2019-06-20T04:27:57.739Z,3044.00
2019-06-20T04:28:58.173Z,2964.00
2019-06-20T04:29:58.672Z,3052.00
2019-06-20T04:31:20.243Z,3080.00
2019-06-20T04:31:59.515Z,3128.00
2019-06-20T04:32:59.954Z,3212.00
2019-06-20T04:34:00.387Z,3276.00
2019-06-20T04:35:00.839Z,3344.00
2019-06-20T04:36:01.338Z,3392.00
2019-06-20T04:37:22.891Z,3412.00
2019-06-20T04:38:02.169Z,3436.00
2019-06-20T04:39:15.597Z,3452.00
2019-06-20T04:40:03.053Z,3488.00
2019-06-20T04:41:03.485Z,3528.00
2019-06-20T04:42:03.934Z,3572.00
2019-06-20T04:43:25.544Z,3616.00
2019-06-20T04:44:04.829Z,3668.00
2019-06-20T04:45:05.277Z,3716.00
2019-06-20T04:46:05.712Z,3788.00
2019-06-20T04:47:06.184Z,3868.00
2019-06-20T04:48:06.591Z,3972.00
2019-06-20T04:49:28.218Z,4092.00
2019-06-20T04:50:07.479Z,4196.00
2019-06-20T04:51:07.925Z,4288.00
2019-06-20T04:52:08.366Z,4400.00
2019-06-20T04:53:08.807Z,4480.00
2019-06-20T04:54:09.243Z,4572.00
2019-06-20T04:55:30.939Z,4688.00
2019-06-20T04:56:10.135Z,4860.00
2019-06-20T04:57:10.585Z,5128.00
2019-06-20T04:58:11.016Z,5620.00
2019-06-20T04:59:11.480Z,6224.00
2019-06-20T05:00:11.903Z,6656.00
2019-06-20T05:01:33.512Z,7216.00
2019-06-20T05:02:15.054Z,7520.00
2019-06-20T05:03:13.234Z,7580.00
2019-06-20T05:04:13.682Z,7704.00
2019-06-20T05:05:14.126Z,7648.00
2019-06-20T05:06:14.558Z,7304.00
2019-06-20T05:07:36.168Z,7056.00
2019-06-20T05:08:15.454Z,6872.00
2019-06-20T05:09:15.899Z,6684.00
2019-06-20T05:10:16.333Z,6812.00
2019-06-20T05:11:16.787Z,6868.00
2019-06-20T05:12:17.229Z,6984.00
2019-06-20T05:13:38.833Z,7120.00
2019-06-20T05:14:18.136Z,7400.00
2019-06-20T05:15:18.557Z,7872.00
2019-06-20T05:16:19.003Z,8440.00
2019-06-20T05:17:19.518Z,8688.00
2019-06-20T05:18:19.898Z,8952.00
2019-06-20T05:19:41.500Z,8940.00
2019-06-20T05:20:20.785Z,8848.00
2019-06-20T05:21:22.448Z,8436.00
2019-06-20T05:22:21.683Z,7852.00
2019-06-20T05:23:22.120Z,7508.00
2019-06-20T05:24:25.475Z,7428.00
2019-06-20T05:25:44.185Z,7592.00
2019-06-20T05:26:23.465Z,7816.00
2019-06-20T05:27:23.909Z,7576.00
2019-06-20T05:28:24.403Z,7524.00
2019-06-20T05:29:24.787Z,7588.00
2019-06-20T05:30:25.233Z,7644.00
2019-06-20T05:31:46.850Z,7684.00
2019-06-20T05:32:26.119Z,8276.00
2019-06-20T05:33:26.587Z,9088.00
2019-06-20T05:34:27.016Z,9928.00
2019-06-20T05:35:27.460Z,9716.00
2019-06-20T05:36:27.909Z,9148.00
2019-06-20T05:37:49.519Z,9108.00
2019-06-20T05:38:28.793Z,8884.00
2019-06-20T05:39:29.250Z,8508.00
2019-06-20T05:40:29.698Z,8288.00
2019-06-20T05:41:30.137Z,8800.00
2019-06-20T05:42:30.579Z,9356.00
2019-06-20T05:43:52.186Z,9424.00
2019-06-20T05:44:31.471Z,9528.00
2019-06-20T05:45:31.947Z,9892.00
2019-06-20T05:46:33.092Z,10056.00
2019-06-20T05:47:32.820Z,10064.00
2019-06-20T05:48:33.271Z,9728.00
2019-06-20T05:49:55.066Z,9384.00
2019-06-20T05:50:34.148Z,8524.00
2019-06-20T05:51:34.592Z,8452.00
2019-06-20T05:52:35.110Z,8460.00
2019-06-20T05:53:35.478Z,8492.00
2019-06-20T05:54:35.929Z,9256.00
2019-06-20T05:55:57.547Z,9280.00
2019-06-20T05:56:36.818Z,7648.00
2019-06-20T05:57:37.264Z,7388.00
2019-06-20T05:58:37.712Z,7880.00
2019-06-20T05:59:38.257Z,7264.00
2019-06-20T06:00:38.610Z,6748.00
2019-06-20T06:02:00.238Z,6336.00
2019-06-20T06:02:40.242Z,6056.00
2019-06-20T06:03:39.943Z,5896.00
2019-06-20T06:04:40.392Z,5736.00
2019-06-20T06:05:40.846Z,5708.00
2019-06-20T06:06:41.285Z,5812.00
2019-06-20T06:08:03.789Z,5960.00
2019-06-20T06:08:42.181Z,5944.00
2019-06-20T06:09:42.621Z,5820.00
2019-06-20T06:10:43.066Z,5864.00
2019-06-20T06:11:43.526Z,6304.00
2019-06-20T06:12:45.132Z,6864.00
2019-06-20T06:14:05.578Z,7156.00
2019-06-20T06:14:44.859Z,7216.00
2019-06-20T06:15:45.305Z,7044.00
2019-06-20T06:16:45.816Z,6740.00
2019-06-20T06:17:46.199Z,6572.00
2019-06-20T06:18:46.662Z,6288.00
2019-06-20T06:20:08.256Z,5808.00
2019-06-20T06:20:47.547Z,5576.00
2019-06-20T06:21:47.992Z,4464.00
2019-06-20T06:22:48.452Z,3784.00
2019-06-20T06:23:48.888Z,3060.00
2019-06-20T06:24:49.331Z,2488.00
2019-06-20T06:26:10.940Z,2100.00
2019-06-20T06:26:50.223Z,1844.00
2019-06-20T06:27:50.668Z,1676.00
2019-06-20T06:28:51.121Z,1572.00
2019-06-20T06:29:51.564Z,1524.00
2019-06-20T06:30:52.007Z,1500.00
2019-06-20T06:32:13.622Z,1488.00
2019-06-20T06:32:52.913Z,1436.00
2019-06-20T06:33:53.349Z,1468.00
2019-06-20T06:34:53.818Z,1540.00
2019-06-20T06:35:54.241Z,1608.00
2019-06-20T06:36:54.685Z,1696.00
2019-06-20T06:38:21.979Z,1740.00
2019-06-20T06:38:55.577Z,1848.00
2019-06-20T06:39:56.024Z,1960.00
2019-06-20T06:40:56.495Z,2084.00
2019-06-20T06:41:56.906Z,2120.00
2019-06-20T06:42:57.363Z,2532.00
2019-06-20T06:44:18.982Z,2908.00
2019-06-20T06:44:58.241Z,3088.00
2019-06-20T06:45:58.682Z,3224.00
2019-06-20T06:46:59.777Z,3436.00
2019-06-20T06:47:59.560Z,3672.00
2019-06-20T06:49:00.002Z,4048.00
2019-06-20T06:50:21.627Z,4512.00
2019-06-20T06:51:00.909Z,5060.00
2019-06-20T06:52:01.336Z,5600.00
2019-06-20T06:53:01.773Z,6144.00
2019-06-20T06:54:02.213Z,6744.00
2019-06-20T06:55:02.654Z,7328.00
2019-06-20T06:56:24.256Z,7748.00
2019-06-20T06:57:03.587Z,8600.00
2019-06-20T06:58:03.976Z,9416.00
2019-06-20T06:59:04.442Z,9640.00
2019-06-20T07:00:04.875Z,9276.00
2019-06-20T07:01:05.306Z,9360.00
2019-06-20T07:02:26.906Z,9064.00
2019-06-20T07:03:06.185Z,8504.00
2019-06-20T07:04:06.642Z,7824.00
2019-06-20T07:05:07.065Z,7240.00
2019-06-20T07:06:07.523Z,6988.00
2019-06-20T07:07:07.954Z,6568.00
2019-06-20T07:08:29.552Z,6284.00
2019-06-20T07:09:08.832Z,6316.00
2019-06-20T07:10:09.281Z,6464.00
2019-06-20T07:11:09.708Z,6436.00
2019-06-20T07:12:10.158Z,6360.00
2019-06-20T07:14:44.602Z,8256.00
2019-06-20T07:15:44.155Z,9404.00
2019-06-20T07:18:39.921Z,12008.00
2019-06-20T07:20:45.657Z,12796.00
2019-06-20T07:21:34.217Z,12928.00
2019-06-20T07:23:29.017Z,12752.00
2019-06-20T07:24:29.253Z,11844.00
2019-06-20T07:26:25.846Z,10152.00
2019-06-20T07:27:24.344Z,9644.00
2019-06-20T07:29:19.758Z,8896.00
2019-06-20T07:30:19.367Z,8864.00
2019-06-20T07:32:14.092Z,9568.00
2019-06-20T07:33:14.395Z,10572.00
2019-06-20T07:35:10.087Z,11228.00
2019-06-20T07:36:10.408Z,13932.00
2019-06-20T07:38:05.446Z,11092.00
2019-06-20T07:39:05.699Z,10228.00
2019-06-20T07:41:00.322Z,10752.00
2019-06-20T07:42:00.735Z,7988.00
2019-06-20T07:43:55.717Z,6344.00
2019-06-20T07:44:55.984Z,5712.00
2019-06-20T07:46:50.619Z,4632.00
2019-06-20T07:47:51.019Z,4380.00
2019-06-20T07:49:45.618Z,4152.00
2019-06-20T07:50:46.046Z,4236.00
2019-06-20T07:52:40.986Z,4020.00
2019-06-20T07:53:41.095Z,3844.00
2019-06-20T07:55:36.216Z,2912.00
2019-06-20T07:56:36.137Z,2556.00
2019-06-20T07:58:30.742Z,2536.00
2019-06-20T07:59:31.199Z,2684.00
2019-06-20T08:00:31.663Z,2996.00
2019-06-20T08:01:32.074Z,3408.00
2019-06-20T08:02:32.530Z,3696.00
2019-06-20T08:03:32.960Z,4000.00
2019-06-20T08:04:33.404Z,4452.00
2019-06-20T08:05:33.875Z,4852.00
2019-06-20T08:06:34.294Z,5444.00
2019-06-20T08:07:34.735Z,6380.00
2019-06-20T08:08:35.196Z,7416.00
2019-06-20T08:09:44.706Z,8300.00
2019-06-20T08:10:36.057Z,9036.00
2019-06-20T08:11:36.513Z,9088.00
2019-06-20T08:12:36.965Z,8472.00
2019-06-20T08:13:37.398Z,8128.00
2019-06-20T08:14:37.850Z,8072.00
2019-06-20T08:15:38.287Z,8120.00
2019-06-20T08:16:38.745Z,8392.00
2019-06-20T08:17:39.180Z,8904.00
2019-06-20T08:18:39.614Z,9300.00
2019-06-20T08:19:40.067Z,9616.00
2019-06-20T08:20:40.507Z,9868.00
2019-06-20T08:21:44.094Z,10200.00
2019-06-20T08:22:41.398Z,11256.00
2019-06-20T08:23:41.843Z,11624.00
2019-06-20T08:24:42.283Z,15036.00
2019-06-20T08:25:42.736Z,18880.00
2019-06-20T08:26:43.171Z,23040.00
2019-06-20T08:27:43.651Z,15376.00
2019-06-20T08:28:44.055Z,16544.00
2019-06-20T08:29:44.525Z,18304.00
2019-06-20T08:30:44.987Z,20672.00
2019-06-20T08:31:45.427Z,22784.00
2019-06-20T08:32:45.846Z,28960.00
2019-06-20T08:33:46.328Z,16864.00
2019-06-20T08:34:46.750Z,14188.00
2019-06-20T08:35:47.204Z,13452.00
2019-06-20T08:36:47.644Z,13728.00
2019-06-20T08:37:48.105Z,14640.00
2019-06-20T08:38:48.541Z,17568.00
2019-06-20T08:39:49.019Z,18208.00
2019-06-20T08:40:49.428Z,18112.00
2019-06-20T08:41:49.900Z,18656.00
2019-06-20T08:42:50.319Z,27232.00
2019-06-20T08:43:50.823Z,81408.00
2019-06-20T08:44:51.232Z,97088.00
2019-06-20T08:45:51.689Z,93728.00
2019-06-20T08:46:52.123Z,98336.00
2019-06-20T08:47:52.613Z,66400.00
2019-06-20T08:48:53.029Z,22048.00
2019-06-20T08:49:53.480Z,27584.00
2019-06-20T08:50:53.952Z,26464.00
2019-06-20T08:51:55.633Z,85440.00
2019-06-20T08:52:56.155Z,95680.00
2019-06-20T08:53:56.223Z,51968.00
2019-06-20T08:54:56.651Z,38560.00
2019-06-20T08:55:57.683Z,32160.00
2019-06-20T08:56:57.376Z,25216.00
2019-06-20T08:57:58.085Z,19648.00
2019-06-20T08:58:58.543Z,19456.00
2019-06-20T08:59:58.836Z,20064.00
2019-06-20T09:01:01.297Z,22656.00
2019-06-20T09:02:00.716Z,19648.00
2019-06-20T09:03:00.451Z,29376.00
2019-06-20T09:04:00.075Z,22112.00
2019-06-20T09:05:00.395Z,19296.00
2019-06-20T09:09:02.432Z,12632.00
2019-06-20T09:10:04.188Z,11140.00
2019-06-20T09:11:04.035Z,10304.00
2019-06-20T09:12:04.991Z,9748.00
2019-06-20T09:13:04.003Z,9044.00
2019-06-20T09:14:04.464Z,8716.00
2019-06-20T09:15:04.920Z,8732.00
2019-06-20T09:16:05.381Z,9588.00
2019-06-20T09:17:05.820Z,11692.00
2019-06-20T09:18:06.283Z,12012.00
2019-06-20T09:19:06.735Z,10976.00
2019-06-20T09:20:07.180Z,9732.00
2019-06-20T09:21:07.645Z,8992.00
2019-06-20T09:22:08.095Z,9028.00
2019-06-20T09:23:08.558Z,9276.00
2019-06-20T09:24:08.998Z,9348.00
2019-06-20T09:25:09.449Z,8712.00
2019-06-20T09:26:09.903Z,7656.00
2019-06-20T09:27:10.359Z,7236.00
2019-06-20T09:28:10.816Z,7616.00
2019-06-20T09:29:11.261Z,8200.00
2019-06-20T09:30:11.722Z,8696.00
2019-06-20T09:31:12.162Z,8732.00
2019-06-20T09:32:12.612Z,8608.00
2019-06-20T09:33:13.079Z,7180.00
2019-06-20T09:34:13.510Z,6840.00
2019-06-20T09:35:13.964Z,6976.00
2019-06-20T09:36:14.422Z,6916.00
2019-06-20T09:37:14.861Z,6864.00
2019-06-20T09:38:15.317Z,7080.00
2019-06-20T09:39:15.769Z,7332.00
2019-06-20T09:40:16.212Z,7736.00
2019-06-20T09:41:16.669Z,8780.00
2019-06-20T09:42:17.141Z,8840.00
2019-06-20T09:43:27.148Z,8656.00
2019-06-20T09:44:18.008Z,8504.00
2019-06-20T09:45:18.469Z,7804.00
2019-06-20T09:46:18.926Z,7356.00
2019-06-20T09:47:19.358Z,7124.00
2019-06-20T09:48:19.803Z,7040.00
2019-06-20T09:49:20.258Z,7576.00
2019-06-20T09:50:20.701Z,8084.00
2019-06-20T09:51:21.148Z,8248.00
2019-06-20T09:52:21.619Z,8324.00
2019-06-20T09:53:22.053Z,7956.00
2019-06-20T09:54:22.496Z,8404.00
2019-06-20T09:55:22.943Z,10064.00
2019-06-20T09:56:23.397Z,11996.00
2019-06-20T09:57:23.840Z,14848.00
2019-06-20T09:58:24.285Z,17184.00
2019-06-20T09:59:27.903Z,15256.00
2019-06-20T10:00:25.191Z,13628.00
2019-06-20T10:01:25.647Z,11880.00
2019-06-20T10:02:26.071Z,9644.00
2019-06-20T10:03:26.556Z,8716.00
2019-06-20T10:04:26.977Z,9696.00
2019-06-20T10:05:27.416Z,12224.00
2019-06-20T10:06:27.864Z,23872.00
2019-06-20T10:07:28.314Z,12720.00
2019-06-20T10:08:28.768Z,39648.00
2019-06-20T10:09:29.240Z,14148.00
2019-06-20T10:10:29.660Z,13016.00
2019-06-20T10:11:30.110Z,13720.00
2019-06-20T10:12:30.555Z,15708.00
2019-06-20T10:13:32.829Z,23104.00
2019-06-20T10:14:31.451Z,21920.00
2019-06-20T10:17:13.796Z,31680.00
2019-06-20T10:18:05.504Z,31040.00
2019-06-20T10:20:00.121Z,31968.00
2019-06-20T10:21:00.584Z,47040.00
2019-06-20T10:23:09.494Z,30400.00
2019-06-20T10:23:56.043Z,34912.00
2019-06-20T10:24:56.084Z,27296.00
2019-06-20T10:25:58.220Z,29952.00
2019-06-20T10:26:58.012Z,38464.00
2019-06-20T10:27:57.858Z,114880.00
2019-06-20T10:28:57.896Z,92256.00
2019-06-20T10:36:11.882Z,115296.00
2019-06-20T10:37:12.334Z,118048.00
2019-06-20T10:39:07.001Z,121184.00
2019-06-20T10:40:07.421Z,119168.00
2019-06-20T10:42:02.058Z,115552.00
2019-06-20T10:43:02.510Z,107424.00
2019-06-20T10:46:30.539Z,94272.00
2019-06-20T10:47:35.019Z,91552.00
2019-06-20T10:49:26.315Z,92544.00
2019-06-20T10:50:25.849Z,90496.00
2019-06-20T10:52:23.264Z,99488.00
2019-06-20T10:53:20.953Z,77408.00
2019-06-20T10:56:52.519Z,21952.00
2019-06-20T10:57:49.861Z,17312.00
2019-06-20T10:59:51.665Z,19200.00
2019-06-20T11:00:44.602Z,22400.00
2019-06-20T11:02:38.998Z,34656.00
2019-06-20T11:03:40.428Z,31584.00
2019-06-20T11:04:42.010Z,61120.00
2019-06-20T11:05:40.909Z,23232.00
2019-06-20T11:06:41.661Z,22304.00
2019-06-20T11:07:42.453Z,37664.00
2019-06-20T11:08:43.224Z,21568.00
2019-06-20T11:09:43.208Z,45472.00
2019-06-20T11:10:43.612Z,37152.00
2019-06-20T11:11:43.153Z,40608.00
2019-06-20T11:12:50.189Z,61696.00
2019-06-20T11:13:44.370Z,68224.00
2019-06-20T11:14:44.546Z,52096.00
2019-06-20T11:15:46.195Z,65632.00
2019-06-20T11:16:45.462Z,77760.00
2019-06-20T11:17:46.376Z,41536.00
2019-06-20T11:18:46.413Z,73120.00
2019-06-20T11:19:48.071Z,85408.00
2019-06-20T11:20:48.681Z,87392.00
2019-06-20T11:21:47.788Z,96320.00
2019-06-20T11:22:48.245Z,81760.00
2019-06-20T11:23:48.712Z,92864.00
2019-06-20T11:24:49.183Z,87232.00
2019-06-20T11:25:49.649Z,86496.00
2019-06-20T11:26:50.120Z,36800.00
2019-06-20T11:27:50.598Z,15092.00
2019-06-20T11:28:52.361Z,94304.00
2019-06-20T11:29:51.534Z,96512.00
2019-06-20T11:30:59.613Z,78944.00
2019-06-20T11:31:52.459Z,79552.00
2019-06-20T11:32:52.947Z,89632.00
2019-06-20T11:33:53.407Z,83808.00
2019-06-20T11:34:53.886Z,39104.00
2019-06-20T11:35:54.342Z,22880.00
2019-06-20T11:36:54.811Z,14448.00
2019-06-20T11:37:55.272Z,13156.00
2019-06-20T11:38:55.736Z,12832.00
2019-06-20T11:39:56.255Z,12748.00
2019-06-20T11:40:56.698Z,12472.00
2019-06-20T11:41:57.151Z,12012.00
2019-06-20T11:42:57.609Z,11332.00
2019-06-20T11:43:58.066Z,11152.00
2019-06-20T11:44:58.528Z,10992.00
2019-06-20T11:45:58.985Z,10828.00
2019-06-20T11:46:59.518Z,11152.00
2019-06-20T11:47:59.906Z,11968.00
2019-06-20T11:49:00.371Z,13620.00
2019-06-20T11:50:00.836Z,12984.00
2019-06-20T11:51:01.288Z,14004.00
2019-06-20T11:52:01.753Z,13168.00
2019-06-20T11:53:02.249Z,12552.00
2019-06-20T11:54:02.657Z,12388.00
2019-06-20T11:55:03.106Z,12836.00
2019-06-20T11:56:03.556Z,13264.00
2019-06-20T11:57:04.030Z,13492.00
2019-06-20T11:58:04.497Z,12888.00
2019-06-20T11:59:04.935Z,12660.00
2019-06-20T12:00:05.404Z,12892.00
2019-06-20T12:01:05.838Z,12376.00
2019-06-20T12:02:06.294Z,12788.00
2019-06-20T12:03:06.784Z,13664.00
2019-06-20T12:04:09.407Z,13576.00
2019-06-20T12:05:07.655Z,13704.00
2019-06-20T12:06:08.115Z,12932.00
2019-06-20T12:07:08.566Z,13120.00
2019-06-20T12:08:09.017Z,14696.00
2019-06-20T12:09:09.465Z,13712.00
2019-06-20T12:10:09.923Z,13320.00
2019-06-20T12:11:10.369Z,12388.00
2019-06-20T12:12:10.822Z,11456.00
2019-06-20T12:13:11.285Z,11128.00
2019-06-20T12:14:11.733Z,10844.00
2019-06-20T12:15:13.792Z,12404.00
2019-06-20T12:16:12.648Z,13644.00
2019-06-20T12:17:13.093Z,14476.00
2019-06-20T12:18:13.535Z,15132.00
2019-06-20T12:19:13.992Z,15852.00
2019-06-20T12:20:14.440Z,16608.00
2019-06-20T12:21:14.901Z,16832.00
2019-06-20T12:22:15.348Z,17088.00
2019-06-20T12:23:15.796Z,16204.00
2019-06-20T12:24:16.255Z,15496.00
2019-06-20T12:25:16.718Z,14384.00
2019-06-20T12:26:17.166Z,13504.00
2019-06-20T12:27:17.612Z,12924.00
2019-06-20T12:28:18.053Z,12628.00
2019-06-20T12:29:18.520Z,12488.00
2019-06-20T12:30:18.971Z,12196.00
2019-06-20T12:31:20.100Z,11744.00
2019-06-20T12:32:19.865Z,11404.00
2019-06-20T12:33:20.322Z,10824.00
2019-06-20T12:34:30.256Z,11284.00
2019-06-20T12:35:21.220Z,10776.00
2019-06-20T12:36:21.668Z,10496.00
2019-06-20T12:37:22.134Z,10036.00
2019-06-20T12:38:22.592Z,9224.00
2019-06-20T12:39:23.030Z,9148.00
2019-06-20T12:40:23.479Z,9132.00
2019-06-20T12:41:23.962Z,9268.00
2019-06-20T12:42:24.385Z,9308.00
2019-06-20T12:43:24.854Z,8948.00
2019-06-20T12:44:25.369Z,8908.00
2019-06-20T12:45:25.742Z,9188.00
2019-06-20T12:46:26.233Z,9060.00
2019-06-20T12:47:26.649Z,8880.00
2019-06-20T12:48:27.092Z,8628.00
2019-06-20T12:49:27.560Z,8624.00
2019-06-20T12:50:28.063Z,8592.00
2019-06-20T12:51:28.450Z,8432.00
2019-06-20T12:52:28.908Z,7984.00
2019-06-20T12:53:29.352Z,8048.00
2019-06-20T12:54:30.344Z,8272.00
2019-06-20T12:55:30.244Z,8604.00
2019-06-20T12:56:51.867Z,8908.00
2019-06-20T12:57:31.178Z,8768.00
2019-06-20T12:58:31.650Z,8800.00
2019-06-20T12:59:32.085Z,8412.00